Time;durP1;ratioP1;P1;durP2;ratioP2;P2;SDS_P1;SDS_P2;PMS_P1;PMS_P2;Temp;Humidity;BMP_temperature;BMP_pressure;BME280_temperature;BME280_humidity;BME280_pressure;Samples;Min_cycle;Max_cycle;Signal;HPM_P1;HPM_P2
2023/02/08 00:00:24;;;;;;;1999.90;999.90;;;-0.70;99.90;;;;;;6718863;88;20214;-76
2023/02/08 00:10:25;;;;;;;1999.90;999.90;;;-0.90;99.90;;;;;;6720744;88;20324;-75
2023/02/08 00:20:25;;;;;;;1999.90;999.90;;;-0.90;99.90;;;;;;6721818;88;20206;-75
2023/02/08 00:30:26;;;;;;;1999.90;999.90;;;-1.00;99.90;;;;;;6721256;88;21017;-75
2023/02/08 00:40:27;;;;;;;1999.90;999.90;;;-1.20;99.90;;;;;;6727749;88;20190;-76
2023/02/08 00:50:27;;;;;;;1999.90;999.90;;;-1.30;99.90;;;;;;6724777;88;20274;-76
2023/02/08 01:00:28;;;;;;;1999.90;999.90;;;-1.40;99.90;;;;;;6722746;88;20267;-77
2023/02/08 01:10:29;;;;;;;1999.90;999.90;;;-1.50;99.90;;;;;;6718562;88;20295;-75
2023/02/08 01:20:30;;;;;;;1999.90;999.90;;;-1.20;99.90;;;;;;6719627;88;20194;-76
2023/02/08 01:30:30;;;;;;;1999.90;999.90;;;-1.40;99.90;;;;;;6716548;88;20526;-77
2023/02/08 01:40:31;;;;;;;1999.90;999.90;;;-1.60;99.90;;;;;;6718415;88;20179;-76
2023/02/08 01:50:38;;;;;;;1999.90;999.90;;;-1.50;99.90;;;;;;6716467;88;20662;-76
2023/02/08 02:00:38;;;;;;;1999.90;999.90;;;-1.60;99.90;;;;;;6721476;88;20605;-75
2023/02/08 02:10:40;;;;;;;1999.90;999.90;;;-1.50;99.90;;;;;;6718586;88;20209;-75
2023/02/08 02:20:47;;;;;;;1999.90;999.90;;;-1.80;99.90;;;;;;6719205;88;20522;-76
2023/02/08 02:31:13;;;;;;;1999.90;999.90;;;-1.70;99.90;;;;;;6718089;88;20239;-76
2023/02/08 02:52:16;;;;;;;1999.90;999.90;;;-2.00;99.90;;;;;;6720947;88;20296;-76
2023/02/08 03:02:17;;;;;;;1999.90;999.90;;;-1.80;99.90;;;;;;6716918;88;20224;-75
2023/02/08 03:12:46;;;;;;;1999.90;999.90;;;-1.70;99.90;;;;;;6711625;88;20207;-76
2023/02/08 03:23:08;;;;;;;1999.90;999.90;;;-1.80;99.90;;;;;;6719993;88;20211;-76
2023/02/08 03:33:32;;;;;;;1999.90;999.90;;;-1.90;99.90;;;;;;6725890;88;20194;-76
2023/02/08 03:43:53;;;;;;;1999.90;999.90;;;-2.00;99.90;;;;;;6725145;88;20684;-76
2023/02/08 03:53:56;;;;;;;1999.90;999.90;;;-2.00;99.90;;;;;;6727590;88;20182;-75
2023/02/08 04:03:58;;;;;;;1999.90;999.90;;;-2.00;99.90;;;;;;6725906;88;20689;-76
2023/02/08 04:13:58;;;;;;;1999.90;999.90;;;-2.00;99.90;;;;;;6720609;88;20243;-76
2023/02/08 04:23:59;;;;;;;1999.90;999.90;;;-2.20;99.90;;;;;;6721382;88;20303;-75
2023/02/08 04:34:01;;;;;;;1999.90;999.90;;;-2.10;99.90;;;;;;6716470;88;21106;-76
2023/02/08 04:44:02;;;;;;;1999.90;999.90;;;-2.20;99.90;;;;;;6718318;88;20300;-76
2023/02/08 04:54:02;;;;;;;1999.90;999.90;;;-2.40;99.90;;;;;;6717394;88;20307;-75
2023/02/08 05:04:03;;;;;;;1999.90;999.90;;;-2.40;99.90;;;;;;6719390;88;20223;-76
2023/02/08 05:14:04;;;;;;;1999.90;999.90;;;-2.40;99.90;;;;;;6718009;88;20200;-76
2023/02/08 05:24:06;;;;;;;1999.90;999.90;;;-2.20;99.90;;;;;;6720747;88;20665;-76
2023/02/08 05:34:06;;;;;;;1999.90;999.90;;;-2.10;99.90;;;;;;6733516;78;20662;-77
2023/02/08 05:44:07;;;;;;;1999.90;999.90;;;-2.30;99.90;;;;;;6737745;88;20293;-77
2023/02/08 05:54:07;;;;;;;1999.90;999.90;;;-2.50;99.90;;;;;;6726175;88;20203;-78
2023/02/08 06:04:08;;;;;;;1999.90;999.90;;;-2.50;99.90;;;;;;6723488;88;20291;-77
2023/02/08 06:14:08;;;;;;;1999.90;999.90;;;-2.60;99.90;;;;;;6727340;88;20197;-77
2023/02/08 06:24:10;;;;;;;1999.90;999.90;;;-2.20;99.90;;;;;;6724342;88;20255;-77
2023/02/08 06:34:10;;;;;;;1999.90;999.90;;;-2.20;99.90;;;;;;6728597;88;20212;-76
2023/02/08 06:44:11;;;;;;;1999.90;999.90;;;-2.20;99.90;;;;;;6728128;88;20185;-77
2023/02/08 06:54:11;;;;;;;1999.90;999.90;;;-2.30;99.90;;;;;;6725414;88;20260;-75
2023/02/08 07:04:12;;;;;;;1999.90;999.90;;;-2.50;99.90;;;;;;6723979;88;20343;-76
2023/02/08 07:14:14;;;;;;;1999.90;999.90;;;-2.70;99.90;;;;;;6720320;88;20198;-75
2023/02/08 07:24:14;;;;;;;1999.90;999.90;;;-2.50;99.90;;;;;;6717965;88;20287;-75
2023/02/08 07:34:20;;;;;;;1999.90;999.90;;;-2.60;99.90;;;;;;6718108;88;20593;-75
2023/02/08 07:44:21;;;;;;;1999.90;999.90;;;-2.40;99.90;;;;;;6723315;88;20644;-77
2023/02/08 07:54:21;;;;;;;1999.90;999.90;;;-2.20;99.90;;;;;;6731865;88;20211;-77
2023/02/08 08:04:22;;;;;;;1999.90;999.90;;;-2.00;99.90;;;;;;6732819;88;20213;-76
2023/02/08 08:14:23;;;;;;;1999.90;999.90;;;-1.80;99.90;;;;;;6729296;88;20188;-75
2023/02/08 08:24:23;;;;;;;1999.90;999.90;;;-1.30;99.90;;;;;;6734088;88;20357;-77
2023/02/08 08:34:28;;;;;;;1999.90;999.90;;;-0.70;99.90;;;;;;6728410;88;20485;-76
2023/02/08 08:44:30;;;;;;;1999.90;999.90;;;-0.10;99.90;;;;;;6733567;88;20201;-77
2023/02/08 08:54:30;;;;;;;1999.90;999.90;;;0.50;99.90;;;;;;6728122;88;20214;-77
2023/02/08 09:04:32;;;;;;;1999.90;999.90;;;0.80;99.90;;;;;;6723850;88;20184;-77
2023/02/08 09:14:33;;;;;;;1999.90;999.90;;;1.40;99.90;;;;;;6726608;88;20210;-76
2023/02/08 09:24:34;;;;;;;1999.90;999.90;;;2.10;99.90;;;;;;6723604;88;20754;-77
2023/02/08 09:34:35;;;;;;;1999.90;999.90;;;2.70;99.90;;;;;;6725994;88;20232;-76
2023/02/08 09:44:55;;;;;;;1999.90;999.90;;;3.30;99.90;;;;;;6728368;88;20238;-76
2023/02/08 09:55:01;;;;;;;1999.90;999.90;;;4.10;99.90;;;;;;6723454;88;20672;-77
2023/02/08 10:05:12;;;;;;;1999.90;999.90;;;4.10;99.90;;;;;;6723649;88;20219;-76
2023/02/08 10:15:19;;;;;;;1999.90;999.90;;;4.80;99.90;;;;;;6727116;88;20297;-75
2023/02/08 10:25:44;;;;;;;1999.90;999.90;;;5.40;99.90;;;;;;6717908;88;20220;-76
2023/02/08 10:35:48;;;;;;;1999.90;999.90;;;6.40;98.60;;;;;;6715011;88;20624;-76
2023/02/08 10:46:15;;;;;;;1999.90;999.90;;;6.20;98.70;;;;;;6715801;88;20319;-75
2023/02/08 10:56:33;;;;;;;1999.90;999.90;;;6.50;96.10;;;;;;6724618;88;20221;-76
2023/02/08 11:06:33;;;;;;;1999.90;999.90;;;6.30;97.00;;;;;;6719353;88;20229;-75
2023/02/08 11:16:35;;;;;;;1999.90;999.90;;;6.50;95.70;;;;;;6719663;88;20253;-76
2023/02/08 11:26:37;;;;;;;1999.90;999.90;;;6.80;95.30;;;;;;6723101;88;20189;-77
2023/02/08 11:36:48;;;;;;;1999.90;999.90;;;7.40;94.00;;;;;;6727722;78;20181;-78
2023/02/08 11:46:50;;;;;;;1999.90;999.90;;;8.20;92.30;;;;;;6739780;88;20248;-78
2023/02/08 11:57:10;;;;;;;1999.90;999.90;;;7.80;92.10;;;;;;6742421;87;20228;-76
2023/02/08 12:07:18;;;;;;;1999.90;999.90;;;8.60;91.00;;;;;;6739979;88;20298;-76
2023/02/08 12:17:46;;;;;;;1999.90;999.90;;;8.90;90.50;;;;;;6755246;87;20224;-78
2023/02/08 12:28:06;;;;;;;1999.90;999.90;;;8.60;90.60;;;;;;6745421;87;20210;-77
2023/02/08 12:48:44;;;;;;;1999.90;999.90;;;10.00;89.60;;;;;;6761143;88;20195;-79
2023/02/08 12:58:48;;;;;;;1999.90;999.90;;;9.70;90.00;;;;;;6769767;88;20410;-78
2023/02/08 13:09:11;;;;;;;1999.90;999.90;;;11.50;84.60;;;;;;6760961;88;20320;-79
2023/02/08 13:19:46;;;;;;;1999.90;999.90;;;13.70;83.80;;;;;;6762172;87;20644;-79
2023/02/08 13:29:50;;;;;;;1999.90;999.90;;;14.40;82.80;;;;;;6753110;88;20647;-79
2023/02/08 13:40:16;;;;;;;1999.90;999.90;;;17.60;80.40;;;;;;6756061;88;20180;-78
2023/02/08 13:50:50;;;;;;;1999.90;999.90;;;14.10;76.10;;;;;;6761935;88;20290;-79
2023/02/08 14:00:56;;;;;;;1999.90;999.90;;;15.70;75.30;;;;;;6762097;88;20777;-79
2023/02/08 14:11:11;;;;;;;1999.90;999.90;;;12.60;76.10;;;;;;6762278;87;20309;-79
2023/02/08 14:21:28;;;;;;;1999.90;999.90;;;11.70;78.10;;;;;;6754423;88;20569;-79
2023/02/08 14:31:39;;;;;;;1999.90;999.90;;;11.70;77.70;;;;;;6752352;87;20305;-78
2023/02/08 14:41:59;;;;;;;1999.90;999.90;;;11.20;79.00;;;;;;6758254;87;20262;-80
2023/02/08 14:52:08;;;;;;;1999.90;999.90;;;11.50;76.20;;;;;;6741428;88;20205;-77
2023/02/08 15:02:19;;;;;;;1999.90;999.90;;;9.80;77.80;;;;;;6741430;88;20210;-76
2023/02/08 15:12:27;;;;;;;1999.90;999.90;;;9.70;79.80;;;;;;6748042;88;20703;-77
2023/02/08 15:22:38;;;;;;;1999.90;999.90;;;9.30;78.90;;;;;;6744250;88;20216;-78
2023/02/08 15:32:39;;;;;;;1999.90;999.90;;;9.80;78.90;;;;;;6749477;88;20354;-77
2023/02/08 15:42:42;;;;;;;1999.90;999.90;;;9.30;78.40;;;;;;6747993;87;20192;-78
2023/02/08 15:52:43;;;;;;;1999.90;999.90;;;8.70;79.10;;;;;;6761933;87;20721;-79
2023/02/08 16:02:52;;;;;;;1999.90;999.90;;;8.60;79.10;;;;;;6750350;88;20250;-78
2023/02/08 16:12:58;;;;;;;1999.90;999.90;;;8.10;79.70;;;;;;6747704;87;20223;-77
2023/02/08 16:23:26;;;;;;;1999.90;999.90;;;7.20;80.30;;;;;;6743002;87;20220;-77
2023/02/08 16:33:28;;;;;;;1999.90;999.90;;;6.80;81.20;;;;;;6769701;87;20288;-78
2023/02/08 16:43:31;;;;;;;1999.90;999.90;;;6.40;83.00;;;;;;6747843;87;20270;-77
2023/02/08 16:53:32;;;;;;;1999.90;999.90;;;6.10;82.80;;;;;;6748875;87;20774;-77
2023/02/08 17:03:35;;;;;;;1999.90;999.90;;;5.50;84.30;;;;;;6745929;88;20269;-77
2023/02/08 17:13:35;;;;;;;1999.90;999.90;;;5.20;84.70;;;;;;6743043;88;20186;-76
2023/02/08 17:23:36;;;;;;;1999.90;999.90;;;4.80;88.00;;;;;;6751419;88;20208;-76
2023/02/08 17:33:39;;;;;;;1999.90;999.90;;;4.50;90.10;;;;;;6756690;88;20677;-77
2023/02/08 17:44:00;;;;;;;1999.90;999.90;;;4.40;90.80;;;;;;6750771;78;20271;-77
2023/02/08 17:54:04;;;;;;;1999.90;999.90;;;4.00;91.60;;;;;;6735498;88;20185;-78
2023/02/08 18:04:05;;;;;;;1999.90;999.90;;;3.70;92.20;;;;;;6743948;88;20170;-76
2023/02/08 18:14:05;;;;;;;1999.90;999.90;;;3.40;92.40;;;;;;6745350;88;20219;-77
2023/02/08 18:24:06;;;;;;;1999.90;999.90;;;3.00;92.90;;;;;;6747516;88;20315;-76
2023/02/08 18:34:06;;;;;;;1999.90;999.90;;;2.80;92.90;;;;;;6731317;88;20166;-77
2023/02/08 18:44:08;;;;;;;1999.90;999.90;;;2.80;92.60;;;;;;6730863;88;20271;-77
2023/02/08 18:54:08;;;;;;;1999.90;999.90;;;2.60;92.90;;;;;;6736065;88;20199;-76
2023/02/08 19:04:09;;;;;;;1999.90;999.90;;;2.70;92.50;;;;;;6737299;88;20208;-77
2023/02/08 19:14:12;;;;;;;1999.90;999.90;;;2.40;93.30;;;;;;6735913;88;20270;-77
2023/02/08 19:24:13;;;;;;;1999.90;999.90;;;2.50;93.00;;;;;;6736728;88;20629;-76
2023/02/08 19:34:13;;;;;;;1999.90;999.90;;;2.10;93.60;;;;;;6742369;88;20192;-76
2023/02/08 19:44:16;;;;;;;1999.90;999.90;;;1.90;93.80;;;;;;6745004;88;20197;-78
2023/02/08 19:54:18;;;;;;;1999.90;999.90;;;1.90;93.60;;;;;;6743608;88;20287;-77
2023/02/08 20:04:20;;;;;;;1999.90;999.90;;;2.00;93.50;;;;;;6744787;88;20786;-78
2023/02/08 20:14:21;;;;;;;1999.90;999.90;;;2.00;93.30;;;;;;6738204;88;20194;-77
2023/02/08 20:24:21;;;;;;;1999.90;999.90;;;2.10;93.10;;;;;;6740251;88;20928;-77
2023/02/08 20:34:22;;;;;;;1999.90;999.90;;;2.00;93.40;;;;;;6739260;88;20211;-77
2023/02/08 20:44:23;;;;;;;1999.90;999.90;;;2.00;93.80;;;;;;6746413;88;20193;-77
2023/02/08 20:54:24;;;;;;;1999.90;999.90;;;1.90;93.90;;;;;;6738611;88;20269;-76
2023/02/08 21:04:25;;;;;;;1999.90;999.90;;;1.80;94.30;;;;;;6737849;88;20198;-76
2023/02/08 21:14:26;;;;;;;1999.90;999.90;;;1.70;94.30;;;;;;6738630;88;21472;-76
2023/02/08 21:24:28;;;;;;;1999.90;999.90;;;1.70;94.00;;;;;;6738391;88;20197;-76
2023/02/08 21:34:32;;;;;;;1999.90;999.90;;;1.70;94.20;;;;;;6738184;88;20268;-76
2023/02/08 21:44:34;;;;;;;1999.90;999.90;;;1.70;94.20;;;;;;6737485;88;20652;-76
2023/02/08 21:54:40;;;;;;;1999.90;999.90;;;1.50;94.50;;;;;;6738208;88;20654;-76
2023/02/08 22:15:00;;;;;;;1999.90;999.90;;;1.40;94.90;;;;;;6727180;88;20616;-76
2023/02/08 22:25:00;;;;;;;1999.90;999.90;;;1.40;95.20;;;;;;6746128;88;20283;-78
2023/02/08 22:35:01;;;;;;;1999.90;999.90;;;1.40;95.10;;;;;;6743006;88;20185;-78
2023/02/08 22:45:02;;;;;;;1999.90;999.90;;;1.30;95.10;;;;;;6742258;88;20944;-77
2023/02/08 22:55:03;;;;;;;1999.90;999.90;;;1.20;95.50;;;;;;6742397;88;20571;-77
2023/02/08 23:05:04;;;;;;;1999.90;999.90;;;1.00;96.20;;;;;;6734587;88;20831;-77
2023/02/08 23:15:05;;;;;;;1999.90;999.90;;;0.60;98.50;;;;;;6730156;88;20185;-77
2023/02/08 23:25:06;;;;;;;1999.90;999.90;;;0.60;97.30;;;;;;6732464;88;21080;-77
2023/02/08 23:45:10;;;;;;;1999.90;999.90;;;0.60;97.20;;;;;;6651410;87;20196;-75
2023/02/08 23:55:11;;;;;;;1999.90;999.90;;;0.50;97.30;;;;;;6736229;87;20208;-75
